LGL431 ELLX-LFBZ
Flight info
| Callsign | LGL431 |
|---|---|
| Flight time | N/A |
| Altitude | 23000 |
| Route | GTQ G21 RLP/N0317F190 G21 LMG R10 MAGEC |
| Aircraft | DH8D/M-SDE2E3FGRY/H |
Departure
| Time | N/A |
|---|---|
| Airport | Luxembourg-Findel International Airport (ELLX) |
Arrival
| Time | 2026-04-29 12:55 |
|---|---|
| Airport | Biarritz Pays Basque airport (LFBZ) |
| Time | Latitude | Longitude | Altitude | Speed | Heading |
|---|---|---|---|---|---|
| 2026-04-29 12:40 | 43.91871 | -1.01734 | 18279 ft | 328 kts | 217° |
| 2026-04-29 12:41 | 43.90090 | -1.03642 | 17497 ft | 326 kts | 215° |
| 2026-04-29 12:41 | 43.88280 | -1.05531 | 16605 ft | 325 kts | 215° |
| 2026-04-29 12:41 | 43.86482 | -1.07407 | 15691 ft | 324 kts | 215° |
| 2026-04-29 12:41 | 43.84698 | -1.09271 | 14801 ft | 323 kts | 216° |
| 2026-04-29 12:42 | 43.82922 | -1.11130 | 13916 ft | 321 kts | 216° |
| 2026-04-29 12:42 | 43.81173 | -1.12962 | 13027 ft | 320 kts | 216° |
| 2026-04-29 12:42 | 43.79402 | -1.14816 | 12133 ft | 319 kts | 216° |
| 2026-04-29 12:42 | 43.77664 | -1.16637 | 11239 ft | 317 kts | 216° |
| 2026-04-29 12:43 | 43.75927 | -1.18475 | 10526 ft | 307 kts | 218° |
| 2026-04-29 12:43 | 43.74609 | -1.20697 | 9905 ft | 301 kts | 240° |
| 2026-04-29 12:43 | 43.73846 | -1.23347 | 9312 ft | 293 kts | 247° |
| 2026-04-29 12:43 | 43.73160 | -1.25952 | 8710 ft | 287 kts | 247° |
| 2026-04-29 12:44 | 43.72501 | -1.28480 | 8131 ft | 281 kts | 247° |
| 2026-04-29 12:44 | 43.71854 | -1.30966 | 7681 ft | 271 kts | 246° |
| 2026-04-29 12:44 | 43.71228 | -1.33370 | 7288 ft | 262 kts | 246° |
| 2026-04-29 12:44 | 43.70612 | -1.35725 | 6790 ft | 258 kts | 246° |
| 2026-04-29 12:45 | 43.70004 | -1.38038 | 6252 ft | 256 kts | 246° |
| 2026-04-29 12:45 | 43.69404 | -1.40321 | 5716 ft | 255 kts | 246° |
| 2026-04-29 12:45 | 43.68733 | -1.42557 | 5172 ft | 251 kts | 240° |
| 2026-04-29 12:45 | 43.67914 | -1.44667 | 4625 ft | 250 kts | 238° |
| 2026-04-29 12:46 | 43.67071 | -1.46779 | 4083 ft | 250 kts | 237° |
| 2026-04-29 12:46 | 43.66249 | -1.48860 | 3545 ft | 250 kts | 238° |
| 2026-04-29 12:46 | 43.65408 | -1.50951 | 3008 ft | 249 kts | 237° |
| 2026-04-29 12:46 | 43.64541 | -1.53005 | 2470 ft | 249 kts | 237° |
| 2026-04-29 12:47 | 43.63657 | -1.55044 | 2067 ft | 242 kts | 236° |
| 2026-04-29 12:47 | 43.62861 | -1.56888 | 2416 ft | 203 kts | 236° |
| 2026-04-29 12:47 | 43.62211 | -1.58468 | 2862 ft | 182 kts | 237° |
| 2026-04-29 12:47 | 43.61611 | -1.59977 | 3039 ft | 177 kts | 236° |
| 2026-04-29 12:48 | 43.61006 | -1.61535 | 3176 ft | 198 kts | 237° |
| 2026-04-29 12:48 | 43.60298 | -1.63333 | 3116 ft | 229 kts | 237° |
| 2026-04-29 12:48 | 43.59469 | -1.65365 | 3048 ft | 255 kts | 236° |
| 2026-04-29 12:48 | 43.58528 | -1.67507 | 2994 ft | 259 kts | 230° |
| 2026-04-29 12:49 | 43.57373 | -1.69350 | 2985 ft | 250 kts | 223° |
| 2026-04-29 12:49 | 43.56230 | -1.71107 | 2979 ft | 245 kts | 224° |
| 2026-04-29 12:49 | 43.55131 | -1.72867 | 2977 ft | 240 kts | 225° |
| 2026-04-29 12:49 | 43.54083 | -1.74606 | 2974 ft | 236 kts | 226° |
| 2026-04-29 12:50 | 43.53060 | -1.76349 | 2972 ft | 232 kts | 227° |
| 2026-04-29 12:50 | 43.52044 | -1.78027 | 2965 ft | 224 kts | 219° |
| 2026-04-29 12:50 | 43.50742 | -1.78965 | 2961 ft | 205 kts | 186° |
| 2026-04-29 12:50 | 43.49403 | -1.78718 | 2959 ft | 191 kts | 153° |
| 2026-04-29 12:51 | 43.48279 | -1.77784 | 2970 ft | 186 kts | 147° |
| 2026-04-29 12:51 | 43.47189 | -1.76837 | 2970 ft | 182 kts | 144° |
| 2026-04-29 12:51 | 43.46478 | -1.75476 | 2960 ft | 178 kts | 104° |
| 2026-04-29 12:51 | 43.46378 | -1.73782 | 2929 ft | 180 kts | 95° |
| 2026-04-29 12:52 | 43.46417 | -1.72021 | 2709 ft | 188 kts | 91° |
| 2026-04-29 12:52 | 43.46487 | -1.70220 | 2599 ft | 188 kts | 90° |
| 2026-04-29 12:52 | 43.46547 | -1.68413 | 2375 ft | 192 kts | 90° |
| 2026-04-29 12:52 | 43.46598 | -1.66605 | 2111 ft | 191 kts | 90° |
| 2026-04-29 12:53 | 43.46642 | -1.64770 | 1851 ft | 191 kts | 90° |
| 2026-04-29 12:53 | 43.46679 | -1.63002 | 1639 ft | 175 kts | 90° |
| 2026-04-29 12:53 | 43.46713 | -1.61451 | 1438 ft | 154 kts | 90° |
| 2026-04-29 12:53 | 43.46737 | -1.60001 | 967 ft | 148 kts | 90° |
| 2026-04-29 12:54 | 43.46745 | -1.58570 | 755 ft | 158 kts | 86° |
| 2026-04-29 12:54 | 43.46782 | -1.56971 | 882 ft | 172 kts | 90° |
| 2026-04-29 12:54 | 43.46811 | -1.55371 | 630 ft | 163 kts | 88° |
| 2026-04-29 12:54 | 43.46823 | -1.53906 | 352 ft | 146 kts | 88° |
| 2026-04-29 12:55 | 43.46836 | -1.52621 | 240 ft | 106 kts | 89° |
| 2026-04-29 12:55 | 43.46845 | -1.51836 | 230 ft | 64 kts | 89° |
| 2026-04-29 12:55 | 43.46852 | -1.51410 | 229 ft | 21 kts | 77° |
| 2026-04-29 12:55 | 43.46841 | -1.51343 | 229 ft | 6 kts | 253° |
| 2026-04-29 12:56 | 43.46849 | -1.51477 | 229 ft | 21 kts | 270° |
| 2026-04-29 12:56 | 43.46851 | -1.51716 | 229 ft | 25 kts | 267° |
| 2026-04-29 12:56 | 43.46846 | -1.51950 | 231 ft | 23 kts | 267° |
| 2026-04-29 12:56 | 43.46865 | -1.52152 | 233 ft | 20 kts | 317° |
| 2026-04-29 12:57 | 43.46984 | -1.52200 | 234 ft | 16 kts | 311° |
| 2026-04-29 12:57 | 43.46997 | -1.52355 | 236 ft | 16 kts | 264° |
| 2026-04-29 12:57 | 43.46999 | -1.52493 | 237 ft | 12 kts | 258° |
| 2026-04-29 12:57 | 43.46995 | -1.52659 | 239 ft | 21 kts | 269° |
| 2026-04-29 12:58 | 43.46995 | -1.52829 | 240 ft | 13 kts | 275° |
| 2026-04-29 12:58 | 43.47041 | -1.52900 | 241 ft | 8 kts | 314° |
| 2026-04-29 12:58 | 43.47057 | -1.52952 | 241 ft | 5 kts | 268° |
| 2026-04-29 12:58 | 43.47055 | -1.53005 | 241 ft | 6 kts | 267° |
| 2026-04-29 12:59 | 43.47054 | -1.53068 | 242 ft | 7 kts | 268° |
| 2026-04-29 12:59 | 43.47051 | -1.53141 | 242 ft | 7 kts | 278° |
| 2026-04-29 12:59 | 43.47091 | -1.53189 | 242 ft | 6 kts | 326° |
| 2026-04-29 12:59 | 43.47116 | -1.53213 | 241 ft | 3 kts | 325° |
| 2026-04-29 13:00 | 43.47123 | -1.53200 | 241 ft | 2 kts | 108° |
| 2026-04-29 13:00 | 43.47111 | -1.53182 | 241 ft | 2 kts | 165° |
| 2026-04-29 13:00 | 43.47107 | -1.53180 | 241 ft | 0 kts | 160° |